Time;durP1;ratioP1;P1;durP2;ratioP2;P2;SDS_P1;SDS_P2;PMS_P1;PMS_P2;Temp;Humidity;BMP_temperature;BMP_pressure;BME280_temperature;BME280_humidity;BME280_pressure;Samples;Min_cycle;Max_cycle;Signal;HPM_P1;HPM_P2
2023/01/10 00:00:33;;;;;;;45.05;24.58;;;5.80;99.90;;;;;;2603372;54;20038;31
2023/01/10 00:03:11;;;;;;;46.50;25.00;;;5.80;99.90;;;;;;2603517;54;20855;31
2023/01/10 00:05:48;;;;;;;42.15;23.90;;;5.80;99.90;;;;;;2603356;54;20061;31
2023/01/10 00:08:22;;;;;;;47.00;26.25;;;5.80;99.90;;;;;;2603079;54;21271;31
2023/01/10 00:13:21;;;;;;;43.85;24.95;;;5.80;99.90;;;;;;2701514;39;21331;31
2023/01/10 00:13:53;;;;;;;47.38;24.75;;;5.90;99.90;;;;;;2621435;46;20097;31
2023/01/10 00:16:27;;;;;;;40.83;22.83;;;5.80;99.90;;;;;;2602824;54;20043;31
2023/01/10 00:19:06;;;;;;;39.25;21.85;;;5.80;99.90;;;;;;2603130;54;20915;31
2023/01/10 00:21:41;;;;;;;41.05;24.15;;;5.80;99.90;;;;;;2602961;54;20656;31
2023/01/10 00:24:21;;;;;;;40.60;24.45;;;5.80;99.90;;;;;;2603365;54;20866;31
2023/01/10 00:26:55;;;;;;;43.35;25.40;;;5.80;99.90;;;;;;2602826;54;20029;31
2023/01/10 00:29:31;;;;;;;38.80;22.05;;;5.80;99.90;;;;;;2603279;54;20173;31
2023/01/10 00:32:05;;;;;;;41.38;24.95;;;5.80;99.90;;;;;;2603138;54;20900;31
2023/01/10 00:34:43;;;;;;;39.03;23.48;;;5.80;99.90;;;;;;2602989;54;20947;31
2023/01/10 00:37:17;;;;;;;34.93;21.10;;;5.80;99.90;;;;;;2602988;54;20034;31
2023/01/10 00:39:52;;;;;;;38.60;24.50;;;5.70;99.90;;;;;;2603062;54;21147;31
2023/01/10 00:45:15;;;;;;;43.30;26.65;;;5.80;99.90;;;;;;2602889;54;20542;31
2023/01/10 00:47:49;;;;;;;47.67;28.20;;;5.80;99.90;;;;;;2602990;54;20030;31
2023/01/10 00:50:27;;;;;;;48.00;27.38;;;5.70;99.90;;;;;;2602831;54;20097;31
2023/01/10 00:53:01;;;;;;;53.83;29.93;;;5.70;99.90;;;;;;2602954;54;20033;31
2023/01/10 00:55:36;;;;;;;53.20;30.65;;;5.70;99.90;;;;;;2621772;46;21024;31
2023/01/10 00:58:11;;;;;;;59.40;33.45;;;5.70;99.90;;;;;;2602992;54;20046;31
2023/01/10 01:00:48;;;;;;;54.50;31.98;;;5.70;99.90;;;;;;2603156;54;21014;31
2023/01/10 01:03:24;;;;;;;46.05;27.40;;;5.70;99.90;;;;;;2602892;54;20872;31
2023/01/10 01:06:05;;;;;;;49.53;29.13;;;5.60;99.90;;;;;;2603030;54;20081;31
2023/01/10 01:08:40;;;;;;;45.38;25.95;;;5.60;99.90;;;;;;2603109;54;20916;31
2023/01/10 01:11:15;;;;;;;46.60;27.05;;;5.60;99.90;;;;;;2621296;47;20027;31
2023/01/10 01:13:50;;;;;;;46.30;27.77;;;5.60;99.90;;;;;;2603099;54;20033;31
2023/01/10 01:16:26;;;;;;;45.67;27.10;;;5.60;99.90;;;;;;2602634;54;20023;31
2023/01/10 01:19:03;;;;;;;40.15;25.15;;;5.60;99.90;;;;;;2701433;39;20438;31
2023/01/10 01:21:36;;;;;;;41.90;26.40;;;5.60;99.90;;;;;;2603640;54;20771;31
2023/01/10 01:24:15;;;;;;;37.30;24.02;;;5.60;99.90;;;;;;2603972;54;20045;31
2023/01/10 01:26:50;;;;;;;39.00;24.80;;;5.60;99.90;;;;;;2603820;54;20022;31
2023/01/10 01:29:24;;;;;;;44.73;26.57;;;5.50;99.90;;;;;;2603689;54;20957;31
2023/01/10 01:32:11;;;;;;;45.60;27.25;;;5.60;99.90;;;;;;2622125;46;20052;31
2023/01/10 01:34:46;;;;;;;48.65;30.77;;;5.50;99.90;;;;;;2602881;54;20829;31
2023/01/10 01:37:21;;;;;;;43.10;26.15;;;5.50;99.90;;;;;;2621906;46;20030;31
2023/01/10 01:39:59;;;;;;;51.17;28.97;;;5.50;99.90;;;;;;2603574;54;20026;31
2023/01/10 01:42:34;;;;;;;48.05;29.30;;;5.50;99.90;;;;;;2603832;54;20030;31
2023/01/10 01:45:33;;;;;;;42.05;25.45;;;5.50;99.90;;;;;;2603791;54;20085;31
2023/01/10 01:48:22;;;;;;;44.67;25.17;;;5.50;99.90;;;;;;2603917;54;20026;31
2023/01/10 01:51:04;;;;;;;57.30;32.45;;;5.50;99.90;;;;;;2603762;54;20844;31
2023/01/10 01:53:41;;;;;;;53.90;32.70;;;5.50;99.90;;;;;;2603859;54;20839;31
2023/01/10 01:56:21;;;;;;;49.83;30.65;;;5.50;99.90;;;;;;2603621;54;20829;31
2023/01/10 01:58:58;;;;;;;51.17;30.15;;;5.40;99.90;;;;;;2603535;54;20820;31
2023/01/10 02:01:33;;;;;;;47.40;28.60;;;5.40;99.90;;;;;;2603532;54;20023;31
2023/01/10 02:04:10;;;;;;;50.25;30.65;;;5.40;99.90;;;;;;2603651;54;20022;31
2023/01/10 02:06:46;;;;;;;52.88;29.35;;;5.40;99.90;;;;;;2603472;54;20569;31
2023/01/10 02:09:22;;;;;;;49.75;29.23;;;5.30;99.90;;;;;;2603534;54;20901;31
2023/01/10 02:12:00;;;;;;;50.95;29.92;;;5.40;99.90;;;;;;2621965;46;20137;31
2023/01/10 02:14:35;;;;;;;47.20;27.65;;;5.30;99.90;;;;;;2603595;54;20026;31
2023/01/10 02:17:11;;;;;;;55.33;32.17;;;5.30;99.90;;;;;;2603513;54;19934;31
2023/01/10 02:19:51;;;;;;;48.30;31.25;;;5.20;99.90;;;;;;2603636;54;20860;31
2023/01/10 02:22:46;;;;;;;46.22;28.48;;;5.20;99.90;;;;;;2603451;54;20085;31
2023/01/10 02:25:55;;;;;;;47.23;27.50;;;5.10;99.90;;;;;;2603510;54;20026;31
2023/01/10 02:28:53;;;;;;;47.40;28.53;;;5.10;99.90;;;;;;2603696;54;19935;31
2023/01/10 02:31:42;;;;;;;47.55;29.20;;;5.00;99.90;;;;;;2603272;54;20904;31
2023/01/10 02:34:21;;;;;;;48.43;28.70;;;5.00;99.90;;;;;;2603385;54;20890;31
2023/01/10 02:36:58;;;;;;;44.08;29.10;;;4.90;99.90;;;;;;2610366;46;20048;31
2023/01/10 02:39:36;;;;;;;45.22;29.25;;;4.90;99.90;;;;;;2603700;54;20909;31
2023/01/10 02:42:11;;;;;;;43.75;26.42;;;4.80;99.90;;;;;;2603415;54;20896;31
2023/01/10 02:44:45;;;;;;;48.07;30.07;;;4.80;99.90;;;;;;2603564;54;22525;31
2023/01/10 02:47:19;;;;;;;51.55;29.63;;;4.80;99.90;;;;;;2603298;54;21099;31
2023/01/10 02:49:57;;;;;;;44.77;27.67;;;4.80;99.90;;;;;;2603461;54;20105;31
2023/01/10 02:52:32;;;;;;;44.60;28.30;;;4.70;99.90;;;;;;2603466;54;20101;31
2023/01/10 02:55:07;;;;;;;46.80;29.63;;;4.70;99.90;;;;;;2603417;54;20812;31
2023/01/10 02:57:46;;;;;;;45.97;26.50;;;4.70;99.90;;;;;;2603402;54;20037;31
2023/01/10 03:00:29;;;;;;;39.90;24.45;;;4.70;99.90;;;;;;2603502;54;20877;31
2023/01/10 03:03:13;;;;;;;39.35;24.55;;;4.70;99.90;;;;;;2603552;54;20121;31
2023/01/10 03:06:09;;;;;;;40.90;23.13;;;4.60;99.90;;;;;;2603497;54;20089;31
2023/01/10 03:08:45;;;;;;;44.55;23.30;;;4.70;99.90;;;;;;2603408;54;20935;31
2023/01/10 03:11:38;;;;;;;;;;;4.70;99.90;;;;;;2603809;54;20085;31
2023/01/10 03:14:19;;;;;;;35.35;21.52;;;4.70;99.90;;;;;;2603614;54;21276;31
2023/01/10 03:16:57;;;;;;;39.35;21.30;;;4.70;99.90;;;;;;2603307;54;20027;31
2023/01/10 03:19:31;;;;;;;33.83;19.83;;;4.70;99.90;;;;;;2603358;54;20027;31
2023/01/10 03:22:09;;;;;;;35.90;21.90;;;4.70;99.90;;;;;;2603420;54;20058;31
2023/01/10 03:24:43;;;;;;;32.40;20.77;;;4.80;99.90;;;;;;2603362;54;20952;31
2023/01/10 03:27:22;;;;;;;35.90;20.75;;;4.80;99.90;;;;;;2603613;54;20067;31
2023/01/10 03:29:58;;;;;;;31.40;18.65;;;4.80;99.90;;;;;;2603229;54;20900;31
2023/01/10 03:32:35;;;;;;;32.85;18.50;;;4.80;99.90;;;;;;2603659;54;20868;31
2023/01/10 03:35:12;;;;;;;33.25;18.85;;;4.80;99.90;;;;;;2603211;54;20901;31
2023/01/10 03:37:55;;;;;;;29.80;18.25;;;4.80;99.90;;;;;;2603154;54;20029;31
2023/01/10 03:40:35;;;;;;;31.95;18.75;;;4.80;99.90;;;;;;2603432;54;19934;31
2023/01/10 03:46:01;;;;;;;27.38;15.88;;;4.90;99.90;;;;;;2603277;54;20026;31
2023/01/10 03:48:38;;;;;;;31.15;17.77;;;4.90;99.90;;;;;;2603130;54;20030;31
2023/01/10 03:51:14;;;;;;;27.88;16.60;;;4.90;99.90;;;;;;2603263;54;20081;31
2023/01/10 03:53:52;;;;;;;25.48;15.93;;;4.90;99.90;;;;;;2603455;54;20045;31
2023/01/10 03:56:27;;;;;;;26.67;16.17;;;4.90;99.90;;;;;;2602960;54;20146;31
2023/01/10 03:59:02;;;;;;;23.87;14.43;;;4.90;99.90;;;;;;2603397;54;20039;31
2023/01/10 04:01:37;;;;;;;21.33;11.77;;;5.00;99.90;;;;;;2603127;54;20033;31
2023/01/10 04:04:12;;;;;;;23.92;12.45;;;4.90;99.90;;;;;;2603338;54;20904;31
2023/01/10 04:06:46;;;;;;;24.25;12.60;;;4.90;99.90;;;;;;2603152;54;20754;31
2023/01/10 04:09:25;;;;;;;20.73;11.35;;;4.90;99.90;;;;;;2603433;54;20022;31
2023/01/10 04:12:00;;;;;;;17.80;10.48;;;4.90;99.90;;;;;;2603133;54;20811;31
2023/01/10 04:14:35;;;;;;;18.17;9.93;;;4.90;99.90;;;;;;2603232;54;20857;31
2023/01/10 04:17:11;;;;;;;20.48;11.27;;;4.90;99.90;;;;;;2602979;54;20081;31
2023/01/10 04:19:46;;;;;;;14.65;8.35;;;4.90;99.90;;;;;;2603201;54;20027;31
2023/01/10 04:22:21;;;;;;;16.23;9.10;;;4.90;99.90;;;;;;2603047;54;20839;31
2023/01/10 04:25:00;;;;;;;15.10;9.45;;;5.00;99.90;;;;;;2603336;54;20934;31
2023/01/10 04:27:35;;;;;;;13.07;7.65;;;5.00;99.90;;;;;;2603211;54;20022;31
2023/01/10 04:30:11;;;;;;;16.55;7.63;;;4.90;99.90;;;;;;2603145;54;20923;31
2023/01/10 04:32:45;;;;;;;13.50;7.00;;;4.90;99.90;;;;;;2703598;39;20486;31
2023/01/10 04:35:20;;;;;;;10.98;6.68;;;4.90;99.90;;;;;;2603217;54;20029;31
2023/01/10 04:37:55;;;;;;;10.48;6.22;;;4.90;99.90;;;;;;2603277;54;20744;31
2023/01/10 04:40:33;;;;;;;10.60;5.82;;;4.90;99.90;;;;;;2602986;54;20085;31
2023/01/10 04:43:08;;;;;;;10.00;6.23;;;4.90;99.90;;;;;;2602973;54;20945;31
2023/01/10 04:45:45;;;;;;;13.47;6.50;;;4.90;99.90;;;;;;2603081;54;20049;31
2023/01/10 04:48:19;;;;;;;10.15;5.80;;;5.00;99.90;;;;;;2602830;54;20901;31
2023/01/10 04:50:55;;;;;;;9.80;5.50;;;4.90;99.90;;;;;;2603319;54;20053;31
2023/01/10 04:53:30;;;;;;;10.57;5.80;;;5.00;99.90;;;;;;2602971;54;20022;31
2023/01/10 04:56:08;;;;;;;11.05;5.63;;;5.00;99.90;;;;;;2602699;54;20105;31
2023/01/10 04:58:42;;;;;;;8.95;5.15;;;5.00;99.90;;;;;;2603068;54;20038;31
2023/01/10 05:01:17;;;;;;;11.90;6.00;;;5.00;99.90;;;;;;2603017;54;20022;31
2023/01/10 05:03:52;;;;;;;10.45;5.85;;;5.00;99.90;;;;;;2603040;54;20811;31
2023/01/10 05:06:26;;;;;;;11.30;5.25;;;5.00;99.90;;;;;;2603020;54;20042;31
2023/01/10 05:09:02;;;;;;;8.07;4.45;;;5.00;99.90;;;;;;2603013;54;20943;31
2023/01/10 05:11:39;;;;;;;8.95;4.80;;;5.10;99.90;;;;;;2603062;54;20838;31
2023/01/10 05:14:14;;;;;;;10.05;4.70;;;5.00;99.90;;;;;;2603154;54;21151;31
2023/01/10 05:16:48;;;;;;;7.85;4.90;;;5.10;99.90;;;;;;2701234;39;20560;31
2023/01/10 05:19:22;;;;;;;8.65;4.43;;;5.00;99.90;;;;;;2603156;54;20026;31
2023/01/10 05:21:58;;;;;;;8.48;5.20;;;5.10;99.90;;;;;;2621786;47;20072;31
2023/01/10 05:24:32;;;;;;;7.45;4.60;;;5.10;99.90;;;;;;2602780;54;20955;31
2023/01/10 05:27:09;;;;;;;6.53;4.50;;;5.10;99.90;;;;;;2603044;54;20026;31
2023/01/10 05:29:43;;;;;;;9.90;4.70;;;5.10;99.90;;;;;;2603094;54;20857;31
2023/01/10 05:32:18;;;;;;;8.20;4.70;;;5.10;99.90;;;;;;2603057;54;20899;31
2023/01/10 05:34:53;;;;;;;8.73;4.97;;;5.10;99.90;;;;;;2602800;54;20653;31
2023/01/10 05:37:27;;;;;;;7.30;4.45;;;5.10;99.90;;;;;;2602775;54;19977;31
2023/01/10 05:40:01;;;;;;;8.25;5.10;;;5.10;99.90;;;;;;2603037;54;20027;31
2023/01/10 05:42:38;;;;;;;8.48;4.68;;;5.10;99.90;;;;;;2603069;54;20938;31
2023/01/10 05:45:14;;;;;;;8.67;5.03;;;5.00;99.90;;;;;;2602667;54;20644;31
2023/01/10 05:47:50;;;;;;;13.30;6.10;;;5.10;99.90;;;;;;2621002;47;19985;31
2023/01/10 05:50:26;;;;;;;9.60;5.65;;;5.10;99.90;;;;;;2603001;54;20845;31
2023/01/10 05:53:06;;;;;;;7.57;4.90;;;5.10;99.90;;;;;;2602879;54;20932;31
2023/01/10 05:55:41;;;;;;;9.47;5.67;;;5.10;99.90;;;;;;2603126;54;20027;31
2023/01/10 05:58:18;;;;;;;8.50;4.70;;;5.00;99.90;;;;;;2602759;54;20870;31
2023/01/10 06:00:52;;;;;;;11.93;6.23;;;5.10;99.90;;;;;;2602852;54;20022;31
2023/01/10 06:05:58;;;;;;;9.55;5.50;;;5.00;99.90;;;;;;2602869;54;20763;31
2023/01/10 06:08:35;;;;;;;6.95;5.03;;;5.00;99.90;;;;;;2701750;39;20548;31
2023/01/10 06:11:14;;;;;;;8.10;4.68;;;5.00;99.90;;;;;;2603559;54;20026;31
2023/01/10 06:13:54;;;;;;;9.55;5.22;;;5.00;99.90;;;;;;2603659;54;20052;31
2023/01/10 06:16:29;;;;;;;8.73;4.88;;;5.00;99.90;;;;;;2603689;54;20100;31
2023/01/10 06:19:05;;;;;;;9.32;5.28;;;5.10;99.90;;;;;;2603675;54;20692;31
2023/01/10 06:21:40;;;;;;;10.05;4.85;;;5.00;99.90;;;;;;2603616;54;20901;31
2023/01/10 06:24:14;;;;;;;9.93;5.50;;;5.10;99.90;;;;;;2603641;54;20033;31
2023/01/10 06:26:49;;;;;;;7.43;4.82;;;5.10;99.90;;;;;;2603691;54;20836;31
2023/01/10 06:29:27;;;;;;;8.30;4.73;;;5.10;99.90;;;;;;2603175;54;20072;31
2023/01/10 06:32:02;;;;;;;9.60;5.38;;;5.10;99.90;;;;;;2603457;54;20242;31
2023/01/10 06:34:37;;;;;;;8.90;5.25;;;5.00;99.90;;;;;;2603488;54;20088;31
2023/01/10 06:37:11;;;;;;;9.50;4.80;;;5.00;99.90;;;;;;2603560;54;20909;31
2023/01/10 06:39:48;;;;;;;9.02;4.47;;;5.00;99.90;;;;;;2603696;54;20081;31
2023/01/10 06:42:23;;;;;;;11.30;5.07;;;5.00;99.90;;;;;;2603597;54;20636;31
2023/01/10 06:45:01;;;;;;;7.87;4.40;;;5.00;99.90;;;;;;2603572;54;20029;31
2023/01/10 06:47:36;;;;;;;11.25;5.05;;;5.00;99.90;;;;;;2603491;54;20862;31
2023/01/10 06:50:14;;;;;;;11.63;5.18;;;5.00;99.90;;;;;;2603646;54;20881;31
2023/01/10 06:52:56;;;;;;;8.63;4.80;;;5.00;99.90;;;;;;2603478;54;20026;31
2023/01/10 06:55:31;;;;;;;9.98;4.78;;;5.00;99.90;;;;;;2603768;54;20022;31
2023/01/10 06:58:06;;;;;;;5.97;4.70;;;5.00;99.90;;;;;;2603521;54;20090;31
2023/01/10 07:00:44;;;;;;;7.28;4.45;;;5.00;99.90;;;;;;2603558;54;20148;31
2023/01/10 07:03:19;;;;;;;13.07;4.65;;;5.00;99.90;;;;;;2603305;54;20872;31
2023/01/10 07:05:54;;;;;;;7.45;5.20;;;5.00;99.90;;;;;;2603558;54;20092;31
2023/01/10 07:08:29;;;;;;;6.60;4.33;;;5.00;99.90;;;;;;2603274;54;20045;31
2023/01/10 07:11:03;;;;;;;8.67;4.40;;;5.00;99.90;;;;;;2603361;54;20813;31
2023/01/10 07:13:40;;;;;;;8.95;5.05;;;5.00;99.90;;;;;;2701976;39;20824;31
2023/01/10 07:16:18;;;;;;;7.88;4.78;;;5.00;99.90;;;;;;2603373;54;20052;31
2023/01/10 07:18:52;;;;;;;8.65;4.40;;;5.00;99.90;;;;;;2603309;54;21010;31
2023/01/10 07:21:27;;;;;;;9.00;4.60;;;5.00;99.90;;;;;;2603599;54;20940;31
2023/01/10 07:24:02;;;;;;;7.97;4.72;;;5.00;99.90;;;;;;2603420;54;20949;31
2023/01/10 07:26:37;;;;;;;10.18;4.65;;;5.00;99.90;;;;;;2603419;54;20910;31
2023/01/10 07:29:15;;;;;;;8.30;4.75;;;5.00;99.90;;;;;;2603455;54;20022;31
2023/01/10 07:31:53;;;;;;;12.00;4.85;;;5.00;99.90;;;;;;2701828;39;20660;31
2023/01/10 07:34:28;;;;;;;8.90;4.60;;;5.10;99.90;;;;;;2603289;54;20957;31
2023/01/10 07:37:06;;;;;;;9.73;5.00;;;5.10;99.90;;;;;;2621707;46;20113;31
2023/01/10 07:39:43;;;;;;;7.05;4.68;;;5.10;99.90;;;;;;2603176;54;20030;31
2023/01/10 07:42:19;;;;;;;8.67;5.17;;;5.10;99.90;;;;;;2603355;54;20909;31
2023/01/10 07:44:55;;;;;;;9.13;5.18;;;5.10;99.90;;;;;;2603468;54;21077;31
2023/01/10 07:47:34;;;;;;;8.13;4.75;;;5.10;99.90;;;;;;2603458;54;20916;31
2023/01/10 07:50:13;;;;;;;11.40;4.90;;;5.10;99.90;;;;;;2603188;54;20026;31
2023/01/10 07:52:52;;;;;;;10.32;5.40;;;5.20;99.90;;;;;;2603265;54;20890;31
2023/01/10 07:55:26;;;;;;;10.13;5.20;;;5.10;99.90;;;;;;2603371;54;20056;31
2023/01/10 07:58:02;;;;;;;10.63;5.75;;;5.10;99.90;;;;;;2603422;54;20029;31
2023/01/10 08:00:37;;;;;;;9.52;5.35;;;5.20;99.90;;;;;;2764857;31;20022;31
2023/01/10 08:03:16;;;;;;;10.37;5.33;;;5.20;99.90;;;;;;2603508;54;20046;31
2023/01/10 08:06:09;;;;;;;8.30;5.15;;;5.20;99.90;;;;;;2603252;54;20031;31
2023/01/10 08:08:44;;;;;;;10.40;5.10;;;5.20;99.90;;;;;;2602908;54;20113;31
2023/01/10 08:11:22;;;;;;;9.90;5.35;;;5.20;99.90;;;;;;2603368;54;20909;31
2023/01/10 08:13:57;;;;;;;8.07;5.30;;;5.20;99.90;;;;;;2603152;54;20027;31
2023/01/10 08:16:35;;;;;;;10.77;4.97;;;5.20;99.90;;;;;;2603287;54;20274;31
2023/01/10 08:19:15;;;;;;;10.50;5.93;;;5.20;99.90;;;;;;2603072;54;20952;31
2023/01/10 08:21:54;;;;;;;9.95;5.35;;;5.20;99.90;;;;;;2603157;54;20030;31
2023/01/10 08:24:34;;;;;;;13.02;5.63;;;5.20;99.90;;;;;;2603156;54;20116;31
2023/01/10 08:27:10;;;;;;;8.15;5.45;;;5.20;99.90;;;;;;2602317;54;20029;31
2023/01/10 08:29:45;;;;;;;8.63;5.82;;;5.20;99.90;;;;;;2602716;54;20038;31
2023/01/10 08:32:21;;;;;;;10.35;5.57;;;5.20;99.90;;;;;;2602663;54;20027;31
2023/01/10 08:35:00;;;;;;;9.50;5.80;;;5.20;99.90;;;;;;2603311;54;20034;31
2023/01/10 08:37:35;;;;;;;13.13;5.32;;;5.30;99.90;;;;;;2603194;54;20054;31
2023/01/10 08:40:12;;;;;;;9.07;4.95;;;5.30;99.90;;;;;;2603049;54;20026;31
2023/01/10 08:42:48;;;;;;;10.55;5.20;;;5.30;99.90;;;;;;2603102;54;20851;31
2023/01/10 08:45:25;;;;;;;11.40;6.37;;;5.30;99.90;;;;;;2603055;54;20033;31
2023/01/10 08:48:03;;;;;;;11.45;5.88;;;5.30;99.90;;;;;;2603098;54;20704;31
2023/01/10 08:50:41;;;;;;;10.77;6.25;;;5.30;99.90;;;;;;2602974;54;20030;31
2023/01/10 08:53:16;;;;;;;11.10;6.72;;;5.40;99.90;;;;;;2602970;54;20026;31
2023/01/10 08:55:53;;;;;;;20.75;11.00;;;5.50;99.90;;;;;;2602805;54;20937;31
2023/01/10 08:58:28;;;;;;;19.83;9.60;;;5.50;99.90;;;;;;2621328;46;20056;31
2023/01/10 09:01:05;;;;;;;17.90;9.98;;;5.50;99.90;;;;;;2602923;54;20120;31
2023/01/10 09:03:42;;;;;;;16.60;7.30;;;5.50;99.90;;;;;;2603107;54;20847;31
2023/01/10 09:06:20;;;;;;;12.20;5.43;;;5.50;99.90;;;;;;2603087;54;20867;31
2023/01/10 09:08:56;;;;;;;12.55;6.80;;;5.60;99.90;;;;;;2621598;47;20022;31
2023/01/10 09:11:30;;;;;;;;;;;5.60;99.90;;;;;;2603058;54;20836;31
2023/01/10 09:14:08;;;;;;;12.03;7.60;;;5.60;99.90;;;;;;2602876;54;20805;31
2023/01/10 09:16:43;;;;;;;15.57;8.02;;;5.60;99.90;;;;;;2603051;54;20852;31
2023/01/10 09:19:21;;;;;;;17.70;9.98;;;5.70;99.90;;;;;;2602743;54;20942;31
2023/01/10 09:21:59;;;;;;;10.25;5.85;;;5.70;99.90;;;;;;2602933;54;20104;31
2023/01/10 09:24:40;;;;;;;8.23;5.63;;;5.70;99.90;;;;;;2603044;54;20901;31
2023/01/10 09:27:15;;;;;;;11.40;5.60;;;5.80;99.90;;;;;;2603150;54;20026;31
2023/01/10 09:29:54;;;;;;;9.23;6.00;;;5.80;99.90;;;;;;2701319;39;21370;31
2023/01/10 09:32:30;;;;;;;11.97;5.87;;;5.80;99.90;;;;;;2602086;54;20026;31
2023/01/10 09:35:06;;;;;;;10.48;5.30;;;5.80;99.90;;;;;;2602350;54;21175;31
2023/01/10 09:37:43;;;;;;;12.25;6.28;;;5.80;99.90;;;;;;2603000;54;20573;31
2023/01/10 09:40:19;;;;;;;7.13;4.68;;;5.80;99.90;;;;;;2602876;54;20968;31
2023/01/10 09:42:59;;;;;;;8.40;4.90;;;5.90;99.90;;;;;;2603148;54;20912;31
2023/01/10 09:45:41;;;;;;;8.70;3.95;;;5.90;99.90;;;;;;2603835;54;20837;31
2023/01/10 09:48:20;;;;;;;13.10;5.20;;;6.00;99.90;;;;;;2603473;54;20845;31
2023/01/10 09:51:04;;;;;;;9.43;5.55;;;6.00;99.90;;;;;;2603581;54;20866;31
2023/01/10 09:53:44;;;;;;;9.60;5.55;;;6.00;99.90;;;;;;2603539;54;20889;31
2023/01/10 09:56:19;;;;;;;6.03;4.10;;;6.00;99.90;;;;;;2603775;54;20046;31
2023/01/10 09:58:54;;;;;;;9.02;5.30;;;6.00;99.90;;;;;;2603554;54;20092;31
2023/01/10 10:01:30;;;;;;;9.07;5.18;;;6.00;99.90;;;;;;2603713;54;20913;31
2023/01/10 10:04:10;;;;;;;7.85;4.80;;;6.00;99.90;;;;;;2603633;54;20855;31
2023/01/10 10:06:46;;;;;;;7.93;4.57;;;6.10;99.90;;;;;;2603830;54;20049;31
2023/01/10 10:09:29;;;;;;;8.88;4.68;;;6.10;99.90;;;;;;2603685;54;20917;31
2023/01/10 10:12:16;;;;;;;10.43;5.20;;;6.20;99.90;;;;;;2603667;54;20022;31
2023/01/10 10:14:59;;;;;;;8.83;5.17;;;6.20;99.90;;;;;;2603566;54;20028;31
2023/01/10 10:17:39;;;;;;;8.23;5.50;;;6.30;99.90;;;;;;2603601;54;21008;31
2023/01/10 10:20:25;;;;;;;9.15;6.05;;;6.30;99.90;;;;;;2603665;54;20824;31
2023/01/10 10:23:07;;;;;;;15.07;5.88;;;6.40;99.90;;;;;;2603461;54;20979;31
2023/01/10 10:26:02;;;;;;;9.23;5.63;;;6.40;99.90;;;;;;2603617;54;20888;31
2023/01/10 10:28:47;;;;;;;10.10;5.60;;;6.40;99.90;;;;;;2603442;54;20026;31
2023/01/10 10:31:35;;;;;;;14.27;5.97;;;6.40;99.90;;;;;;2603510;54;20042;31
2023/01/10 10:34:16;;;;;;;8.70;5.47;;;6.40;99.90;;;;;;2603503;54;20042;31
2023/01/10 10:36:52;;;;;;;12.45;5.28;;;6.40;99.90;;;;;;2603552;54;20179;31
2023/01/10 10:39:38;;;;;;;10.23;5.70;;;6.40;99.90;;;;;;2603676;54;20049;31
2023/01/10 10:42:18;;;;;;;7.75;5.15;;;6.40;99.90;;;;;;2603474;54;20030;31
2023/01/10 10:44:55;;;;;;;9.95;5.25;;;6.40;99.90;;;;;;2603788;54;20027;31
2023/01/10 10:47:32;;;;;;;11.45;5.93;;;6.50;99.90;;;;;;2603628;54;20928;31
2023/01/10 10:50:17;;;;;;;15.82;4.85;;;6.50;99.90;;;;;;2603661;54;20030;31
2023/01/10 10:52:53;;;;;;;10.85;4.93;;;6.80;99.90;;;;;;2603272;54;20039;31
2023/01/10 10:55:31;;;;;;;12.13;6.38;;;7.00;99.90;;;;;;2603258;54;20104;31
2023/01/10 10:58:09;;;;;;;14.23;6.03;;;7.10;99.90;;;;;;2603611;54;20022;31
2023/01/10 11:00:45;;;;;;;10.90;5.55;;;7.10;99.90;;;;;;2603457;54;21066;31
2023/01/10 11:03:30;;;;;;;8.80;5.90;;;7.10;99.90;;;;;;2603297;54;20026;31
2023/01/10 11:06:06;;;;;;;12.60;6.00;;;7.00;99.90;;;;;;2603480;54;20808;31
2023/01/10 11:08:43;;;;;;;9.73;6.13;;;7.00;99.90;;;;;;2603710;54;20853;31
2023/01/10 11:11:34;;;;;;;12.07;6.68;;;6.90;99.90;;;;;;2603245;54;20786;31
2023/01/10 11:14:12;;;;;;;7.82;6.03;;;6.90;99.90;;;;;;2603108;54;20846;31
2023/01/10 11:16:49;;;;;;;11.40;6.35;;;6.90;99.90;;;;;;2603362;54;20035;31
2023/01/10 11:19:25;;;;;;;11.43;5.88;;;6.90;99.90;;;;;;2603568;54;20034;31
2023/01/10 11:22:03;;;;;;;12.10;7.00;;;6.90;99.90;;;;;;2603385;54;20845;31
2023/01/10 11:24:39;;;;;;;11.85;6.70;;;6.90;99.90;;;;;;2603432;54;20109;31
2023/01/10 11:27:17;;;;;;;9.48;6.18;;;6.90;99.90;;;;;;2603260;54;20116;31
2023/01/10 11:29:56;;;;;;;11.57;5.97;;;6.90;99.90;;;;;;2603196;54;20895;31
2023/01/10 11:32:36;;;;;;;10.40;5.95;;;6.90;99.90;;;;;;2603230;54;20074;31
2023/01/10 11:37:44;;;;;;;14.07;6.10;;;6.90;99.90;;;;;;2603669;54;20061;31
2023/01/10 11:40:23;;;;;;;11.88;5.40;;;6.90;99.90;;;;;;2603485;54;20156;31
2023/01/10 11:42:57;;;;;;;14.18;5.82;;;7.00;99.90;;;;;;2603327;54;20029;31
2023/01/10 11:45:37;;;;;;;11.53;5.30;;;6.90;99.90;;;;;;2603526;54;20881;31
2023/01/10 11:48:18;;;;;;;10.52;5.57;;;7.00;99.90;;;;;;2603416;54;20049;31
2023/01/10 11:50:56;;;;;;;9.52;5.25;;;7.00;99.90;;;;;;2603241;54;20029;31
2023/01/10 11:53:38;;;;;;;9.95;5.85;;;7.00;99.90;;;;;;2603265;54;20038;31
2023/01/10 11:56:14;;;;;;;11.35;5.10;;;7.00;99.90;;;;;;2603343;54;20790;31
2023/01/10 11:58:50;;;;;;;7.37;4.63;;;7.00;99.90;;;;;;2603144;54;20053;31
2023/01/10 12:01:35;;;;;;;10.60;5.65;;;7.00;99.90;;;;;;2603329;54;20810;31
2023/01/10 12:04:15;;;;;;;11.25;5.15;;;7.00;99.90;;;;;;2603149;54;20031;31
2023/01/10 12:06:50;;;;;;;10.83;5.50;;;7.10;99.90;;;;;;2603346;54;20026;31
2023/01/10 12:09:41;;;;;;;9.07;5.63;;;7.10;99.90;;;;;;2603168;54;21190;31
2023/01/10 12:12:21;;;;;;;13.95;5.93;;;7.10;99.90;;;;;;2603176;54;20033;31
2023/01/10 12:15:00;;;;;;;11.13;5.18;;;7.10;99.90;;;;;;2701871;39;21066;31
2023/01/10 12:17:38;;;;;;;12.60;5.45;;;7.10;99.90;;;;;;2603219;54;20807;31
2023/01/10 12:20:15;;;;;;;7.93;5.25;;;7.30;99.90;;;;;;2602570;54;20026;31
2023/01/10 12:22:54;;;;;;;11.00;5.43;;;7.30;99.90;;;;;;2603060;54;20943;31
2023/01/10 12:25:35;;;;;;;14.52;5.70;;;7.30;99.90;;;;;;2621735;46;20819;31
2023/01/10 12:28:12;;;;;;;12.82;6.10;;;7.30;99.90;;;;;;2603124;54;20164;31
2023/01/10 12:30:50;;;;;;;16.55;6.75;;;7.30;99.90;;;;;;2603080;54;20120;31
2023/01/10 12:33:29;;;;;;;13.90;6.80;;;7.30;99.90;;;;;;2603111;54;20035;31
2023/01/10 12:36:11;;;;;;;11.00;5.80;;;7.20;99.90;;;;;;2603197;54;20026;31
2023/01/10 12:44:32;;;;;;;13.80;5.50;;;7.20;99.90;;;;;;2603113;54;20929;31
2023/01/10 12:47:12;;;;;;;12.07;5.82;;;7.20;99.90;;;;;;2603032;54;20029;31
2023/01/10 12:49:54;;;;;;;10.83;5.90;;;7.20;99.90;;;;;;2602824;54;20897;31
2023/01/10 12:52:35;;;;;;;11.05;5.35;;;7.20;99.90;;;;;;2603087;54;20801;31
2023/01/10 12:55:14;;;;;;;14.15;6.10;;;7.10;99.90;;;;;;2603254;54;20033;31
2023/01/10 12:57:54;;;;;;;16.50;5.45;;;7.10;99.90;;;;;;2603220;54;20951;31
2023/01/10 13:00:29;;;;;;;12.77;6.15;;;7.00;99.90;;;;;;2602947;54;20026;31
2023/01/10 13:03:13;;;;;;;13.25;6.53;;;7.00;99.90;;;;;;2602927;54;20039;31
2023/01/10 13:05:53;;;;;;;13.77;8.48;;;6.90;99.90;;;;;;2602909;54;20931;31
2023/01/10 13:08:27;;;;;;;15.73;7.40;;;6.80;99.90;;;;;;2621224;47;22352;31
2023/01/10 13:11:03;;;;;;;17.00;8.55;;;6.80;99.90;;;;;;2602999;54;20833;31
2023/01/10 13:13:41;;;;;;;17.83;8.57;;;6.70;99.90;;;;;;2602860;54;20901;31
2023/01/10 13:16:25;;;;;;;19.20;8.93;;;6.70;99.90;;;;;;2602933;54;20166;31
2023/01/10 13:19:06;;;;;;;19.90;8.50;;;6.70;99.90;;;;;;2603761;54;20101;31
2023/01/10 13:21:44;;;;;;;23.75;9.80;;;6.70;99.90;;;;;;2603649;54;20048;31
2023/01/10 13:24:22;;;;;;;19.95;9.27;;;6.70;99.90;;;;;;2602764;54;20084;31
2023/01/10 13:26:58;;;;;;;19.80;9.40;;;6.70;99.90;;;;;;2603717;54;20117;31
2023/01/10 13:29:39;;;;;;;26.17;13.90;;;6.60;99.90;;;;;;2603917;54;20038;31
2023/01/10 13:32:20;;;;;;;24.40;12.10;;;6.60;99.90;;;;;;2602747;54;20094;31
2023/01/10 13:34:56;;;;;;;22.50;9.55;;;6.60;99.90;;;;;;2603845;54;20743;31
2023/01/10 13:37:36;;;;;;;15.30;7.95;;;6.60;99.90;;;;;;2603896;54;20054;31
2023/01/10 13:40:21;;;;;;;18.52;8.60;;;6.60;99.90;;;;;;2622461;46;20153;31
2023/01/10 13:43:32;;;;;;;18.87;9.10;;;6.60;99.90;;;;;;2603612;54;20022;31
2023/01/10 13:46:35;;;;;;;18.17;9.75;;;6.60;99.90;;;;;;2603886;54;20900;31
2023/01/10 13:49:42;;;;;;;15.27;9.57;;;6.50;99.90;;;;;;2603998;54;20105;31
2023/01/10 13:52:37;;;;;;;16.83;9.10;;;6.50;99.90;;;;;;2603515;54;20920;31
2023/01/10 13:55:36;;;;;;;18.00;9.70;;;6.50;99.90;;;;;;2603536;54;21229;31
2023/01/10 14:04:23;;;;;;;20.35;10.95;;;6.40;99.90;;;;;;2603553;54;20971;31
2023/01/10 14:07:02;;;;;;;25.77;11.73;;;6.40;99.90;;;;;;2603474;54;20052;31
2023/01/10 14:09:46;;;;;;;20.50;10.70;;;6.40;99.90;;;;;;2622157;46;21189;31
2023/01/10 14:12:49;;;;;;;19.00;10.17;;;6.40;99.90;;;;;;2603568;54;21012;31
2023/01/10 14:15:23;;;;;;;24.00;10.75;;;6.30;99.90;;;;;;2603194;54;20069;31
2023/01/10 14:18:00;;;;;;;18.77;11.85;;;6.30;99.90;;;;;;2603824;54;20026;31